sensor_id;sensor_type;location;lat;lon;timestamp;temperature;humidity
15341;DHT22;7770;52.158;5.372;2023-08-08T00:00:38;14.20;99.90
15341;DHT22;7770;52.158;5.372;2023-08-08T00:03:25;14.20;99.90
15341;DHT22;7770;52.158;5.372;2023-08-08T00:06:11;14.20;99.90
15341;DHT22;7770;52.158;5.372;2023-08-08T00:08:57;14.30;99.90
15341;DHT22;7770;52.158;5.372;2023-08-08T00:11:43;14.40;99.90
15341;DHT22;7770;52.158;5.372;2023-08-08T00:14:29;14.40;99.90
15341;DHT22;7770;52.158;5.372;2023-08-08T00:17:15;14.40;99.90
15341;DHT22;7770;52.158;5.372;2023-08-08T00:20:01;14.40;99.90
15341;DHT22;7770;52.158;5.372;2023-08-08T00:22:47;14.40;99.90
15341;DHT22;7770;52.158;5.372;2023-08-08T00:25:33;14.40;99.90
15341;DHT22;7770;52.158;5.372;2023-08-08T00:28:19;14.50;99.90
15341;DHT22;7770;52.158;5.372;2023-08-08T00:31:05;14.50;99.90
15341;DHT22;7770;52.158;5.372;2023-08-08T00:33:51;14.50;99.90
15341;DHT22;7770;52.158;5.372;2023-08-08T00:36:37;14.50;99.90
15341;DHT22;7770;52.158;5.372;2023-08-08T00:39:23;14.50;99.90
15341;DHT22;7770;52.158;5.372;2023-08-08T00:42:09;14.40;99.90
15341;DHT22;7770;52.158;5.372;2023-08-08T00:44:55;14.40;99.90
15341;DHT22;7770;52.158;5.372;2023-08-08T00:47:47;14.50;99.90
15341;DHT22;7770;52.158;5.372;2023-08-08T00:50:35;14.40;99.90
15341;DHT22;7770;52.158;5.372;2023-08-08T00:53:22;14.40;99.90
15341;DHT22;7770;52.158;5.372;2023-08-08T00:56:13;14.50;99.90
15341;DHT22;7770;52.158;5.372;2023-08-08T00:58:59;14.40;99.90
15341;DHT22;7770;52.158;5.372;2023-08-08T01:01:45;14.50;99.90
15341;DHT22;7770;52.158;5.372;2023-08-08T01:04:31;14.50;99.90
15341;DHT22;7770;52.158;5.372;2023-08-08T01:10:43;14.50;99.90
15341;DHT22;7770;52.158;5.372;2023-08-08T01:13:31;14.50;99.90
15341;DHT22;7770;52.158;5.372;2023-08-08T01:16:18;14.60;99.90
15341;DHT22;7770;52.158;5.372;2023-08-08T01:19:06;14.70;99.90
15341;DHT22;7770;52.158;5.372;2023-08-08T01:21:54;14.70;99.90
15341;DHT22;7770;52.158;5.372;2023-08-08T01:24:43;14.70;99.90
15341;DHT22;7770;52.158;5.372;2023-08-08T01:27:30;14.70;99.90
15341;DHT22;7770;52.158;5.372;2023-08-08T01:30:16;14.70;99.90
15341;DHT22;7770;52.158;5.372;2023-08-08T01:33:03;14.80;99.90
15341;DHT22;7770;52.158;5.372;2023-08-08T01:36:00;14.80;99.90
15341;DHT22;7770;52.158;5.372;2023-08-08T01:38:51;14.70;99.90
15341;DHT22;7770;52.158;5.372;2023-08-08T01:41:38;14.70;99.90
15341;DHT22;7770;52.158;5.372;2023-08-08T01:44:25;14.60;99.90
15341;DHT22;7770;52.158;5.372;2023-08-08T01:47:12;14.60;99.90
15341;DHT22;7770;52.158;5.372;2023-08-08T01:49:58;14.50;99.90
15341;DHT22;7770;52.158;5.372;2023-08-08T01:52:44;14.60;99.90
15341;DHT22;7770;52.158;5.372;2023-08-08T01:55:31;14.60;99.90
15341;DHT22;7770;52.158;5.372;2023-08-08T01:58:17;14.50;99.90
15341;DHT22;7770;52.158;5.372;2023-08-08T02:01:03;14.60;99.90
15341;DHT22;7770;52.158;5.372;2023-08-08T02:03:49;14.60;99.90
15341;DHT22;7770;52.158;5.372;2023-08-08T02:06:35;14.60;99.90
15341;DHT22;7770;52.158;5.372;2023-08-08T02:09:21;14.60;99.90
15341;DHT22;7770;52.158;5.372;2023-08-08T02:12:07;14.60;99.90
15341;DHT22;7770;52.158;5.372;2023-08-08T02:14:53;14.60;99.90
15341;DHT22;7770;52.158;5.372;2023-08-08T02:17:39;14.70;99.90
15341;DHT22;7770;52.158;5.372;2023-08-08T02:20:25;14.70;99.90
15341;DHT22;7770;52.158;5.372;2023-08-08T02:23:11;14.60;99.90
15341;DHT22;7770;52.158;5.372;2023-08-08T02:25:57;14.50;99.90
15341;DHT22;7770;52.158;5.372;2023-08-08T02:28:43;14.50;99.90
15341;DHT22;7770;52.158;5.372;2023-08-08T02:31:29;14.50;99.90
15341;DHT22;7770;52.158;5.372;2023-08-08T02:34:15;14.40;99.90
15341;DHT22;7770;52.158;5.372;2023-08-08T02:37:01;14.30;99.90
15341;DHT22;7770;52.158;5.372;2023-08-08T02:39:47;14.30;99.90
15341;DHT22;7770;52.158;5.372;2023-08-08T02:42:33;14.30;99.90
15341;DHT22;7770;52.158;5.372;2023-08-08T02:45:19;14.20;99.90
15341;DHT22;7770;52.158;5.372;2023-08-08T02:48:06;14.20;99.90
15341;DHT22;7770;52.158;5.372;2023-08-08T02:50:52;14.10;99.90
15341;DHT22;7770;52.158;5.372;2023-08-08T02:53:38;14.10;99.90
15341;DHT22;7770;52.158;5.372;2023-08-08T02:56:24;14.10;99.90
15341;DHT22;7770;52.158;5.372;2023-08-08T02:59:10;14.10;99.90
15341;DHT22;7770;52.158;5.372;2023-08-08T03:01:56;14.10;99.90
15341;DHT22;7770;52.158;5.372;2023-08-08T03:04:42;14.10;99.90
15341;DHT22;7770;52.158;5.372;2023-08-08T03:07:28;14.10;99.90
15341;DHT22;7770;52.158;5.372;2023-08-08T03:10:14;14.10;99.90
15341;DHT22;7770;52.158;5.372;2023-08-08T03:13:01;14.10;99.90
15341;DHT22;7770;52.158;5.372;2023-08-08T03:15:47;14.10;99.90
15341;DHT22;7770;52.158;5.372;2023-08-08T03:18:33;14.10;99.90
15341;DHT22;7770;52.158;5.372;2023-08-08T03:21:19;14.10;99.90
15341;DHT22;7770;52.158;5.372;2023-08-08T03:24:05;14.10;99.90
15341;DHT22;7770;52.158;5.372;2023-08-08T03:26:51;14.20;99.90
15341;DHT22;7770;52.158;5.372;2023-08-08T03:29:37;14.20;99.90
15341;DHT22;7770;52.158;5.372;2023-08-08T03:32:23;14.20;99.90
15341;DHT22;7770;52.158;5.372;2023-08-08T03:35:09;14.20;99.90
15341;DHT22;7770;52.158;5.372;2023-08-08T03:37:55;14.20;99.90
15341;DHT22;7770;52.158;5.372;2023-08-08T03:40:41;14.20;99.90
15341;DHT22;7770;52.158;5.372;2023-08-08T03:43:27;14.20;99.90
15341;DHT22;7770;52.158;5.372;2023-08-08T03:46:13;14.10;99.90
15341;DHT22;7770;52.158;5.372;2023-08-08T03:48:59;14.00;99.90
15341;DHT22;7770;52.158;5.372;2023-08-08T03:51:45;14.00;99.90
15341;DHT22;7770;52.158;5.372;2023-08-08T03:54:33;13.90;99.90
15341;DHT22;7770;52.158;5.372;2023-08-08T03:57:19;13.90;99.90
15341;DHT22;7770;52.158;5.372;2023-08-08T04:00:05;13.80;99.90
15341;DHT22;7770;52.158;5.372;2023-08-08T04:02:54;13.90;99.90
15341;DHT22;7770;52.158;5.372;2023-08-08T04:05:40;13.90;99.90
15341;DHT22;7770;52.158;5.372;2023-08-08T04:08:27;13.90;99.90
15341;DHT22;7770;52.158;5.372;2023-08-08T04:11:13;13.90;99.90
15341;DHT22;7770;52.158;5.372;2023-08-08T04:13:59;13.90;99.90
15341;DHT22;7770;52.158;5.372;2023-08-08T04:16:45;13.80;99.90
15341;DHT22;7770;52.158;5.372;2023-08-08T04:19:31;13.80;99.90
15341;DHT22;7770;52.158;5.372;2023-08-08T04:22:17;13.80;99.90
15341;DHT22;7770;52.158;5.372;2023-08-08T04:25:03;13.70;99.90
15341;DHT22;7770;52.158;5.372;2023-08-08T04:27:51;13.70;99.90
15341;DHT22;7770;52.158;5.372;2023-08-08T04:30:37;13.60;99.90
15341;DHT22;7770;52.158;5.372;2023-08-08T04:33:23;13.60;99.90
15341;DHT22;7770;52.158;5.372;2023-08-08T04:36:09;13.60;99.90
15341;DHT22;7770;52.158;5.372;2023-08-08T04:38:56;13.60;99.90
15341;DHT22;7770;52.158;5.372;2023-08-08T04:41:42;13.60;99.90
15341;DHT22;7770;52.158;5.372;2023-08-08T04:44:28;13.70;99.90
15341;DHT22;7770;52.158;5.372;2023-08-08T04:47:14;13.90;99.90
15341;DHT22;7770;52.158;5.372;2023-08-08T04:50:00;13.90;99.90
15341;DHT22;7770;52.158;5.372;2023-08-08T04:52:46;14.00;99.90
15341;DHT22;7770;52.158;5.372;2023-08-08T04:55:32;14.10;99.90
15341;DHT22;7770;52.158;5.372;2023-08-08T04:58:18;14.00;99.90
15341;DHT22;7770;52.158;5.372;2023-08-08T05:01:04;14.00;99.90
15341;DHT22;7770;52.158;5.372;2023-08-08T05:03:50;14.10;99.90
15341;DHT22;7770;52.158;5.372;2023-08-08T05:06:36;14.10;99.90
15341;DHT22;7770;52.158;5.372;2023-08-08T05:09:22;14.10;99.90
15341;DHT22;7770;52.158;5.372;2023-08-08T05:12:12;14.20;99.90
15341;DHT22;7770;52.158;5.372;2023-08-08T05:14:58;14.10;99.90
15341;DHT22;7770;52.158;5.372;2023-08-08T05:17:44;14.10;99.90
15341;DHT22;7770;52.158;5.372;2023-08-08T05:20:30;14.40;99.90
15341;DHT22;7770;52.158;5.372;2023-08-08T05:23:16;14.70;99.90
15341;DHT22;7770;52.158;5.372;2023-08-08T05:26:02;15.10;99.90
15341;DHT22;7770;52.158;5.372;2023-08-08T05:28:49;15.60;99.90
15341;DHT22;7770;52.158;5.372;2023-08-08T05:31:35;16.30;99.90
15341;DHT22;7770;52.158;5.372;2023-08-08T05:34:23;16.70;99.90
15341;DHT22;7770;52.158;5.372;2023-08-08T05:37:09;17.20;99.90
15341;DHT22;7770;52.158;5.372;2023-08-08T05:39:56;18.00;99.90
15341;DHT22;7770;52.158;5.372;2023-08-08T05:42:42;19.00;99.90
15341;DHT22;7770;52.158;5.372;2023-08-08T05:45:28;19.80;99.90
15341;DHT22;7770;52.158;5.372;2023-08-08T05:48:14;20.90;99.90
15341;DHT22;7770;52.158;5.372;2023-08-08T05:50:59;21.60;99.90
15341;DHT22;7770;52.158;5.372;2023-08-08T05:53:48;22.50;99.90
15341;DHT22;7770;52.158;5.372;2023-08-08T05:56:35;22.70;99.90
15341;DHT22;7770;52.158;5.372;2023-08-08T05:59:24;22.70;99.90
15341;DHT22;7770;52.158;5.372;2023-08-08T06:02:10;22.20;99.90
15341;DHT22;7770;52.158;5.372;2023-08-08T06:04:56;21.40;99.90
15341;DHT22;7770;52.158;5.372;2023-08-08T06:07:43;20.20;99.90
15341;DHT22;7770;52.158;5.372;2023-08-08T06:10:30;19.10;99.90
15341;DHT22;7770;52.158;5.372;2023-08-08T06:13:16;18.40;99.90
15341;DHT22;7770;52.158;5.372;2023-08-08T06:16:02;17.90;99.90
15341;DHT22;7770;52.158;5.372;2023-08-08T06:18:52;17.70;99.90
15341;DHT22;7770;52.158;5.372;2023-08-08T06:21:38;17.50;99.90
15341;DHT22;7770;52.158;5.372;2023-08-08T06:24:24;17.30;99.90
15341;DHT22;7770;52.158;5.372;2023-08-08T06:27:12;17.10;99.90
15341;DHT22;7770;52.158;5.372;2023-08-08T06:29:59;16.90;99.90
15341;DHT22;7770;52.158;5.372;2023-08-08T06:32:45;16.80;99.90
15341;DHT22;7770;52.158;5.372;2023-08-08T06:35:31;16.80;99.90
15341;DHT22;7770;52.158;5.372;2023-08-08T06:38:17;16.80;99.90
15341;DHT22;7770;52.158;5.372;2023-08-08T06:41:03;16.90;99.90
15341;DHT22;7770;52.158;5.372;2023-08-08T06:43:50;17.00;99.90
15341;DHT22;7770;52.158;5.372;2023-08-08T06:46:37;17.20;99.90
15341;DHT22;7770;52.158;5.372;2023-08-08T06:49:23;17.60;99.90
15341;DHT22;7770;52.158;5.372;2023-08-08T06:52:09;17.50;99.90
15341;DHT22;7770;52.158;5.372;2023-08-08T06:54:55;17.30;99.90
15341;DHT22;7770;52.158;5.372;2023-08-08T06:57:41;17.20;99.90
15341;DHT22;7770;52.158;5.372;2023-08-08T07:00:27;17.10;99.90
15341;DHT22;7770;52.158;5.372;2023-08-08T07:03:13;17.00;99.90
15341;DHT22;7770;52.158;5.372;2023-08-08T07:05:59;17.00;99.90
15341;DHT22;7770;52.158;5.372;2023-08-08T07:08:46;17.30;99.90
15341;DHT22;7770;52.158;5.372;2023-08-08T07:11:32;18.30;99.90
15341;DHT22;7770;52.158;5.372;2023-08-08T07:14:18;18.70;99.90
15341;DHT22;7770;52.158;5.372;2023-08-08T07:17:04;18.70;99.90
15341;DHT22;7770;52.158;5.372;2023-08-08T07:19:50;18.70;99.90
15341;DHT22;7770;52.158;5.372;2023-08-08T07:22:36;18.40;99.90
15341;DHT22;7770;52.158;5.372;2023-08-08T07:25:23;18.20;99.90
15341;DHT22;7770;52.158;5.372;2023-08-08T07:28:09;18.10;99.90
15341;DHT22;7770;52.158;5.372;2023-08-08T07:30:55;18.40;99.90
15341;DHT22;7770;52.158;5.372;2023-08-08T07:33:41;18.60;99.90
15341;DHT22;7770;52.158;5.372;2023-08-08T07:36:27;18.70;99.90
15341;DHT22;7770;52.158;5.372;2023-08-08T07:39:13;18.70;99.90
15341;DHT22;7770;52.158;5.372;2023-08-08T07:41:59;18.50;99.90
15341;DHT22;7770;52.158;5.372;2023-08-08T07:44:45;19.00;99.90
15341;DHT22;7770;52.158;5.372;2023-08-08T07:47:31;20.40;99.90
15341;DHT22;7770;52.158;5.372;2023-08-08T07:50:17;21.40;99.90
15341;DHT22;7770;52.158;5.372;2023-08-08T07:53:04;22.40;99.90
15341;DHT22;7770;52.158;5.372;2023-08-08T07:55:50;23.60;99.90
15341;DHT22;7770;52.158;5.372;2023-08-08T07:58:36;24.40;99.90
15341;DHT22;7770;52.158;5.372;2023-08-08T08:01:22;24.40;99.90
15341;DHT22;7770;52.158;5.372;2023-08-08T08:04:08;24.80;99.90
15341;DHT22;7770;52.158;5.372;2023-08-08T08:06:54;25.20;99.90
15341;DHT22;7770;52.158;5.372;2023-08-08T08:09:40;25.90;99.90
15341;DHT22;7770;52.158;5.372;2023-08-08T08:12:29;25.60;99.90
15341;DHT22;7770;52.158;5.372;2023-08-08T08:15:16;25.20;99.90
15341;DHT22;7770;52.158;5.372;2023-08-08T08:18:02;25.00;99.90
15341;DHT22;7770;52.158;5.372;2023-08-08T08:20:48;25.30;99.90
15341;DHT22;7770;52.158;5.372;2023-08-08T08:23:34;25.80;99.90
15341;DHT22;7770;52.158;5.372;2023-08-08T08:26:20;26.10;99.90
15341;DHT22;7770;52.158;5.372;2023-08-08T08:29:06;26.40;99.90
15341;DHT22;7770;52.158;5.372;2023-08-08T08:31:53;26.50;99.20
15341;DHT22;7770;52.158;5.372;2023-08-08T08:34:39;26.20;99.70
15341;DHT22;7770;52.158;5.372;2023-08-08T08:37:25;26.00;99.90
15341;DHT22;7770;52.158;5.372;2023-08-08T08:40:11;25.50;99.80
15341;DHT22;7770;52.158;5.372;2023-08-08T08:42:57;25.40;99.90
15341;DHT22;7770;52.158;5.372;2023-08-08T08:45:53;24.90;99.90
15341;DHT22;7770;52.158;5.372;2023-08-08T08:48:42;24.60;99.90
15341;DHT22;7770;52.158;5.372;2023-08-08T08:51:28;24.20;99.90
15341;DHT22;7770;52.158;5.372;2023-08-08T08:54:14;23.90;99.90
15341;DHT22;7770;52.158;5.372;2023-08-08T08:57:01;23.30;99.90
15341;DHT22;7770;52.158;5.372;2023-08-08T08:59:47;23.00;99.90
15341;DHT22;7770;52.158;5.372;2023-08-08T09:02:33;22.60;99.90
15341;DHT22;7770;52.158;5.372;2023-08-08T09:05:19;23.30;99.90
15341;DHT22;7770;52.158;5.372;2023-08-08T09:08:08;23.60;99.90
15341;DHT22;7770;52.158;5.372;2023-08-08T09:10:55;23.30;99.90
15341;DHT22;7770;52.158;5.372;2023-08-08T09:13:42;22.40;99.90
15341;DHT22;7770;52.158;5.372;2023-08-08T09:16:28;21.90;99.90
15341;DHT22;7770;52.158;5.372;2023-08-08T09:19:15;22.70;99.90
15341;DHT22;7770;52.158;5.372;2023-08-08T09:22:03;22.80;99.90
15341;DHT22;7770;52.158;5.372;2023-08-08T09:24:50;22.80;99.90
15341;DHT22;7770;52.158;5.372;2023-08-08T09:27:36;22.80;99.90
15341;DHT22;7770;52.158;5.372;2023-08-08T09:30:22;23.70;99.90
15341;DHT22;7770;52.158;5.372;2023-08-08T09:33:08;24.80;99.90
15341;DHT22;7770;52.158;5.372;2023-08-08T09:35:54;25.00;99.90
15341;DHT22;7770;52.158;5.372;2023-08-08T09:38:40;25.20;99.90
15341;DHT22;7770;52.158;5.372;2023-08-08T09:41:27;25.70;99.30
15341;DHT22;7770;52.158;5.372;2023-08-08T09:44:13;26.10;99.70
15341;DHT22;7770;52.158;5.372;2023-08-08T09:46:59;25.50;99.50
15341;DHT22;7770;52.158;5.372;2023-08-08T09:49:46;24.70;99.90
15341;DHT22;7770;52.158;5.372;2023-08-08T09:52:36;23.80;99.90
15341;DHT22;7770;52.158;5.372;2023-08-08T09:55:24;23.20;99.90
15341;DHT22;7770;52.158;5.372;2023-08-08T09:58:11;23.30;99.90
15341;DHT22;7770;52.158;5.372;2023-08-08T10:00:58;23.00;99.90
15341;DHT22;7770;52.158;5.372;2023-08-08T10:03:45;24.10;99.90
15341;DHT22;7770;52.158;5.372;2023-08-08T10:06:31;25.10;99.90
15341;DHT22;7770;52.158;5.372;2023-08-08T10:09:18;25.00;99.90
15341;DHT22;7770;52.158;5.372;2023-08-08T10:12:06;24.80;99.90
15341;DHT22;7770;52.158;5.372;2023-08-08T10:14:52;25.00;99.60
15341;DHT22;7770;52.158;5.372;2023-08-08T10:17:39;25.30;99.10
15341;DHT22;7770;52.158;5.372;2023-08-08T10:20:26;25.90;99.10
15341;DHT22;7770;52.158;5.372;2023-08-08T10:23:15;26.30;99.10
15341;DHT22;7770;52.158;5.372;2023-08-08T10:26:02;26.40;98.50
15341;DHT22;7770;52.158;5.372;2023-08-08T10:28:58;25.90;98.50
15341;DHT22;7770;52.158;5.372;2023-08-08T10:34:47;25.70;99.60
15341;DHT22;7770;52.158;5.372;2023-08-08T10:37:33;25.40;99.10
15341;DHT22;7770;52.158;5.372;2023-08-08T10:40:19;25.40;98.70
15341;DHT22;7770;52.158;5.372;2023-08-08T10:43:12;25.90;98.10
15341;DHT22;7770;52.158;5.372;2023-08-08T10:46:01;25.60;98.50
15341;DHT22;7770;52.158;5.372;2023-08-08T10:48:56;25.50;98.60
15341;DHT22;7770;52.158;5.372;2023-08-08T10:51:48;25.20;98.30
15341;DHT22;7770;52.158;5.372;2023-08-08T10:54:35;24.60;98.90
15341;DHT22;7770;52.158;5.372;2023-08-08T10:57:27;24.80;99.20
15341;DHT22;7770;52.158;5.372;2023-08-08T11:00:16;24.80;99.50
15341;DHT22;7770;52.158;5.372;2023-08-08T11:03:03;24.50;99.60
15341;DHT22;7770;52.158;5.372;2023-08-08T11:05:52;24.40;99.90
15341;DHT22;7770;52.158;5.372;2023-08-08T11:08:38;24.70;99.60
15341;DHT22;7770;52.158;5.372;2023-08-08T11:11:24;24.50;99.30
15341;DHT22;7770;52.158;5.372;2023-08-08T11:14:16;24.50;99.70
15341;DHT22;7770;52.158;5.372;2023-08-08T11:17:03;24.40;99.60
15341;DHT22;7770;52.158;5.372;2023-08-08T11:19:50;24.20;99.80
15341;DHT22;7770;52.158;5.372;2023-08-08T11:22:36;24.00;99.90
15341;DHT22;7770;52.158;5.372;2023-08-08T11:25:26;23.90;99.90
15341;DHT22;7770;52.158;5.372;2023-08-08T11:28:13;24.00;99.90
15341;DHT22;7770;52.158;5.372;2023-08-08T11:31:00;23.70;99.90
15341;DHT22;7770;52.158;5.372;2023-08-08T11:33:48;23.80;99.90
15341;DHT22;7770;52.158;5.372;2023-08-08T11:36:35;23.90;99.90
15341;DHT22;7770;52.158;5.372;2023-08-08T11:39:21;24.20;99.90
15341;DHT22;7770;52.158;5.372;2023-08-08T11:42:07;24.60;99.90
15341;DHT22;7770;52.158;5.372;2023-08-08T11:44:54;25.20;99.90
15341;DHT22;7770;52.158;5.372;2023-08-08T11:47:40;25.20;99.90
15341;DHT22;7770;52.158;5.372;2023-08-08T11:50:26;25.00;99.90
15341;DHT22;7770;52.158;5.372;2023-08-08T11:53:13;24.40;99.80
15341;DHT22;7770;52.158;5.372;2023-08-08T11:56:00;24.20;99.90
15341;DHT22;7770;52.158;5.372;2023-08-08T11:58:51;24.40;99.90
15341;DHT22;7770;52.158;5.372;2023-08-08T12:01:38;24.50;99.90
15341;DHT22;7770;52.158;5.372;2023-08-08T12:04:24;24.30;99.90
15341;DHT22;7770;52.158;5.372;2023-08-08T12:07:10;23.90;99.90
15341;DHT22;7770;52.158;5.372;2023-08-08T12:09:56;23.80;99.90
15341;DHT22;7770;52.158;5.372;2023-08-08T12:12:42;23.90;99.90
15341;DHT22;7770;52.158;5.372;2023-08-08T12:15:32;23.70;99.90
15341;DHT22;7770;52.158;5.372;2023-08-08T12:18:20;23.60;99.90
15341;DHT22;7770;52.158;5.372;2023-08-08T12:21:08;23.30;99.90
15341;DHT22;7770;52.158;5.372;2023-08-08T12:23:55;23.10;99.90
15341;DHT22;7770;52.158;5.372;2023-08-08T12:26:41;23.20;99.90
15341;DHT22;7770;52.158;5.372;2023-08-08T12:29:27;23.50;99.90
15341;DHT22;7770;52.158;5.372;2023-08-08T12:32:13;24.40;99.90
15341;DHT22;7770;52.158;5.372;2023-08-08T12:34:59;24.30;99.90
15341;DHT22;7770;52.158;5.372;2023-08-08T12:37:45;24.40;99.90
15341;DHT22;7770;52.158;5.372;2023-08-08T12:40:32;24.50;99.90
15341;DHT22;7770;52.158;5.372;2023-08-08T12:43:19;24.10;99.90
15341;DHT22;7770;52.158;5.372;2023-08-08T12:46:05;23.40;99.90
15341;DHT22;7770;52.158;5.372;2023-08-08T12:48:51;23.10;99.90
15341;DHT22;7770;52.158;5.372;2023-08-08T12:51:38;23.20;99.90
15341;DHT22;7770;52.158;5.372;2023-08-08T12:54:24;23.00;99.90
15341;DHT22;7770;52.158;5.372;2023-08-08T12:57:10;22.90;99.90
15341;DHT22;7770;52.158;5.372;2023-08-08T12:59:56;22.90;99.90
15341;DHT22;7770;52.158;5.372;2023-08-08T13:02:43;22.80;99.90
15341;DHT22;7770;52.158;5.372;2023-08-08T13:05:29;23.10;99.90
15341;DHT22;7770;52.158;5.372;2023-08-08T13:08:15;23.00;99.90
15341;DHT22;7770;52.158;5.372;2023-08-08T13:11:02;23.30;99.90
15341;DHT22;7770;52.158;5.372;2023-08-08T13:13:48;23.50;99.90
15341;DHT22;7770;52.158;5.372;2023-08-08T13:16:34;23.70;99.90
15341;DHT22;7770;52.158;5.372;2023-08-08T13:19:20;23.70;99.90
15341;DHT22;7770;52.158;5.372;2023-08-08T13:22:07;23.70;99.90
15341;DHT22;7770;52.158;5.372;2023-08-08T13:24:53;23.50;99.90
15341;DHT22;7770;52.158;5.372;2023-08-08T13:27:39;23.50;99.90
15341;DHT22;7770;52.158;5.372;2023-08-08T13:30:25;23.20;99.90
15341;DHT22;7770;52.158;5.372;2023-08-08T13:33:11;22.90;99.90
15341;DHT22;7770;52.158;5.372;2023-08-08T13:35:57;22.70;99.90
15341;DHT22;7770;52.158;5.372;2023-08-08T13:38:43;22.70;99.90
15341;DHT22;7770;52.158;5.372;2023-08-08T13:41:29;22.30;99.90
15341;DHT22;7770;52.158;5.372;2023-08-08T13:44:16;22.00;99.90
15341;DHT22;7770;52.158;5.372;2023-08-08T13:47:02;21.90;99.90
15341;DHT22;7770;52.158;5.372;2023-08-08T13:49:48;22.20;99.90
15341;DHT22;7770;52.158;5.372;2023-08-08T13:52:34;22.30;99.90
15341;DHT22;7770;52.158;5.372;2023-08-08T13:55:20;22.20;99.90
15341;DHT22;7770;52.158;5.372;2023-08-08T13:58:07;22.30;99.90
15341;DHT22;7770;52.158;5.372;2023-08-08T14:00:55;22.10;99.90
15341;DHT22;7770;52.158;5.372;2023-08-08T14:03:42;21.80;99.90
15341;DHT22;7770;52.158;5.372;2023-08-08T14:06:28;21.70;99.90
15341;DHT22;7770;52.158;5.372;2023-08-08T14:09:14;21.50;99.90
15341;DHT22;7770;52.158;5.372;2023-08-08T14:12:00;21.40;99.90
15341;DHT22;7770;52.158;5.372;2023-08-08T14:14:46;21.40;99.90
15341;DHT22;7770;52.158;5.372;2023-08-08T14:17:32;21.60;99.90
15341;DHT22;7770;52.158;5.372;2023-08-08T14:20:18;21.70;99.90
15341;DHT22;7770;52.158;5.372;2023-08-08T14:23:04;21.70;99.90
15341;DHT22;7770;52.158;5.372;2023-08-08T14:25:51;21.50;99.90
15341;DHT22;7770;52.158;5.372;2023-08-08T14:28:37;21.50;99.90
15341;DHT22;7770;52.158;5.372;2023-08-08T14:31:23;21.40;99.90
15341;DHT22;7770;52.158;5.372;2023-08-08T14:34:09;21.10;99.90
15341;DHT22;7770;52.158;5.372;2023-08-08T14:36:55;21.50;99.90
15341;DHT22;7770;52.158;5.372;2023-08-08T14:39:41;22.00;99.90
15341;DHT22;7770;52.158;5.372;2023-08-08T14:42:27;22.30;99.90
15341;DHT22;7770;52.158;5.372;2023-08-08T14:45:13;22.40;99.90
15341;DHT22;7770;52.158;5.372;2023-08-08T14:47:59;22.20;99.90
15341;DHT22;7770;52.158;5.372;2023-08-08T14:50:45;21.90;99.90
15341;DHT22;7770;52.158;5.372;2023-08-08T14:53:31;21.70;99.90
15341;DHT22;7770;52.158;5.372;2023-08-08T14:56:17;21.60;99.90
15341;DHT22;7770;52.158;5.372;2023-08-08T14:59:03;21.60;99.90
15341;DHT22;7770;52.158;5.372;2023-08-08T15:01:49;21.80;99.90
15341;DHT22;7770;52.158;5.372;2023-08-08T15:04:35;21.70;99.90
15341;DHT22;7770;52.158;5.372;2023-08-08T15:07:21;21.60;99.90
15341;DHT22;7770;52.158;5.372;2023-08-08T15:10:08;21.70;99.90
15341;DHT22;7770;52.158;5.372;2023-08-08T15:12:54;21.70;99.90
15341;DHT22;7770;52.158;5.372;2023-08-08T15:15:40;21.30;99.90
15341;DHT22;7770;52.158;5.372;2023-08-08T15:18:26;21.10;99.90
15341;DHT22;7770;52.158;5.372;2023-08-08T15:21:12;21.00;99.90
15341;DHT22;7770;52.158;5.372;2023-08-08T15:23:58;21.00;99.90
15341;DHT22;7770;52.158;5.372;2023-08-08T15:26:45;21.10;99.90
15341;DHT22;7770;52.158;5.372;2023-08-08T15:29:30;21.30;99.90
15341;DHT22;7770;52.158;5.372;2023-08-08T15:32:16;21.40;99.90
15341;DHT22;7770;52.158;5.372;2023-08-08T15:35:03;21.20;99.90
15341;DHT22;7770;52.158;5.372;2023-08-08T15:37:49;21.20;99.90
15341;DHT22;7770;52.158;5.372;2023-08-08T15:40:35;21.10;99.90
15341;DHT22;7770;52.158;5.372;2023-08-08T15:43:21;21.00;99.90
15341;DHT22;7770;52.158;5.372;2023-08-08T15:46:07;20.70;99.90
15341;DHT22;7770;52.158;5.372;2023-08-08T15:48:53;20.70;99.90
15341;DHT22;7770;52.158;5.372;2023-08-08T15:51:40;20.60;99.90
15341;DHT22;7770;52.158;5.372;2023-08-08T15:54:27;20.60;99.90
15341;DHT22;7770;52.158;5.372;2023-08-08T15:57:13;20.70;99.90
15341;DHT22;7770;52.158;5.372;2023-08-08T15:59:59;20.70;99.90
15341;DHT22;7770;52.158;5.372;2023-08-08T16:02:45;20.50;99.90
15341;DHT22;7770;52.158;5.372;2023-08-08T16:05:31;20.40;99.90
15341;DHT22;7770;52.158;5.372;2023-08-08T16:08:17;20.20;99.90
15341;DHT22;7770;52.158;5.372;2023-08-08T16:11:03;20.10;99.90
15341;DHT22;7770;52.158;5.372;2023-08-08T16:13:50;19.90;99.90
15341;DHT22;7770;52.158;5.372;2023-08-08T16:16:36;19.80;99.90
15341;DHT22;7770;52.158;5.372;2023-08-08T16:19:21;19.80;99.90
15341;DHT22;7770;52.158;5.372;2023-08-08T16:22:07;19.80;99.90
15341;DHT22;7770;52.158;5.372;2023-08-08T16:24:55;19.90;99.90
15341;DHT22;7770;52.158;5.372;2023-08-08T16:27:41;20.00;99.90
15341;DHT22;7770;52.158;5.372;2023-08-08T16:30:27;20.10;99.90
15341;DHT22;7770;52.158;5.372;2023-08-08T16:33:13;20.00;99.90
15341;DHT22;7770;52.158;5.372;2023-08-08T16:36:01;20.00;99.90
15341;DHT22;7770;52.158;5.372;2023-08-08T16:38:47;19.90;99.90
15341;DHT22;7770;52.158;5.372;2023-08-08T16:41:33;19.90;99.90
15341;DHT22;7770;52.158;5.372;2023-08-08T16:44:19;19.90;99.90
15341;DHT22;7770;52.158;5.372;2023-08-08T16:47:06;19.80;99.90
15341;DHT22;7770;52.158;5.372;2023-08-08T16:49:52;19.80;99.90
15341;DHT22;7770;52.158;5.372;2023-08-08T16:52:38;19.60;99.90
15341;DHT22;7770;52.158;5.372;2023-08-08T16:55:24;19.50;99.90
15341;DHT22;7770;52.158;5.372;2023-08-08T16:58:10;19.40;99.90
15341;DHT22;7770;52.158;5.372;2023-08-08T17:00:56;19.30;99.90
15341;DHT22;7770;52.158;5.372;2023-08-08T17:03:44;19.10;99.90
15341;DHT22;7770;52.158;5.372;2023-08-08T17:06:30;19.00;99.90
15341;DHT22;7770;52.158;5.372;2023-08-08T17:09:18;18.90;99.90
15341;DHT22;7770;52.158;5.372;2023-08-08T17:12:04;18.80;99.90
15341;DHT22;7770;52.158;5.372;2023-08-08T17:14:50;18.70;99.90
15341;DHT22;7770;52.158;5.372;2023-08-08T17:17:36;18.70;99.90
15341;DHT22;7770;52.158;5.372;2023-08-08T17:20:22;18.60;99.90
15341;DHT22;7770;52.158;5.372;2023-08-08T17:23:09;18.50;99.90
15341;DHT22;7770;52.158;5.372;2023-08-08T17:25:55;18.40;99.90
15341;DHT22;7770;52.158;5.372;2023-08-08T17:28:41;18.40;99.90
15341;DHT22;7770;52.158;5.372;2023-08-08T17:31:27;18.30;99.90
15341;DHT22;7770;52.158;5.372;2023-08-08T17:34:13;18.10;99.90
15341;DHT22;7770;52.158;5.372;2023-08-08T17:36:59;17.90;99.90
15341;DHT22;7770;52.158;5.372;2023-08-08T17:39:45;17.90;99.90
15341;DHT22;7770;52.158;5.372;2023-08-08T17:42:31;17.80;99.90
15341;DHT22;7770;52.158;5.372;2023-08-08T17:45:17;17.80;99.90
15341;DHT22;7770;52.158;5.372;2023-08-08T17:48:03;17.70;99.90
15341;DHT22;7770;52.158;5.372;2023-08-08T17:50:50;17.60;99.90
15341;DHT22;7770;52.158;5.372;2023-08-08T17:53:39;17.50;99.90